sensor_id;sensor_type;location;lat;lon;timestamp;pressure;altitude;pressure_sealevel;temperature;humidity
19128;BME280;9696;53.686;10.094;2023-04-09T00:00:12;102610.66;;;6.53;100.00
19128;BME280;9696;53.686;10.094;2023-04-09T00:02:42;102607.03;;;6.57;100.00
19128;BME280;9696;53.686;10.094;2023-04-09T00:05:12;102612.41;;;6.53;100.00
19128;BME280;9696;53.686;10.094;2023-04-09T00:07:42;102610.63;;;6.55;100.00
19128;BME280;9696;53.686;10.094;2023-04-09T00:10:11;102612.03;;;6.40;100.00
19128;BME280;9696;53.686;10.094;2023-04-09T00:12:40;102614.31;;;6.49;100.00
19128;BME280;9696;53.686;10.094;2023-04-09T00:15:10;102612.91;;;6.41;100.00
19128;BME280;9696;53.686;10.094;2023-04-09T00:17:56;102609.94;;;6.50;100.00
19128;BME280;9696;53.686;10.094;2023-04-09T00:20:25;102610.50;;;6.58;100.00
19128;BME280;9696;53.686;10.094;2023-04-09T00:22:54;102612.25;;;6.36;100.00
19128;BME280;9696;53.686;10.094;2023-04-09T00:25:24;102614.56;;;6.43;100.00
19128;BME280;9696;53.686;10.094;2023-04-09T00:27:55;102606.28;;;6.32;100.00
19128;BME280;9696;53.686;10.094;2023-04-09T00:30:24;102610.53;;;6.35;100.00
19128;BME280;9696;53.686;10.094;2023-04-09T00:32:55;102599.88;;;6.41;100.00
19128;BME280;9696;53.686;10.094;2023-04-09T00:35:24;102605.69;;;6.26;100.00
19128;BME280;9696;53.686;10.094;2023-04-09T00:37:53;102601.56;;;6.42;100.00
19128;BME280;9696;53.686;10.094;2023-04-09T00:40:22;102599.88;;;6.41;100.00
19128;BME280;9696;53.686;10.094;2023-04-09T00:42:51;102600.53;;;6.46;100.00
19128;BME280;9696;53.686;10.094;2023-04-09T00:45:21;102600.16;;;6.33;100.00
19128;BME280;9696;53.686;10.094;2023-04-09T00:47:50;102597.97;;;6.44;100.00
19128;BME280;9696;53.686;10.094;2023-04-09T00:50:21;102600.28;;;6.52;100.00
19128;BME280;9696;53.686;10.094;2023-04-09T00:52:50;102602.00;;;6.53;100.00
19128;BME280;9696;53.686;10.094;2023-04-09T00:55:20;102597.63;;;6.53;100.00
19128;BME280;9696;53.686;10.094;2023-04-09T00:57:50;102610.25;;;6.42;100.00
19128;BME280;9696;53.686;10.094;2023-04-09T01:00:19;102609.53;;;6.39;100.00
19128;BME280;9696;53.686;10.094;2023-04-09T01:02:48;102605.34;;;6.35;100.00
19128;BME280;9696;53.686;10.094;2023-04-09T01:05:20;102602.31;;;6.24;100.00
19128;BME280;9696;53.686;10.094;2023-04-09T01:07:57;102605.16;;;6.39;100.00
19128;BME280;9696;53.686;10.094;2023-04-09T01:10:34;102610.28;;;6.41;100.00
19128;BME280;9696;53.686;10.094;2023-04-09T01:13:10;102610.38;;;6.39;100.00
19128;BME280;9696;53.686;10.094;2023-04-09T01:15:46;102603.69;;;6.32;100.00
19128;BME280;9696;53.686;10.094;2023-04-09T01:18:22;102603.94;;;6.26;100.00
19128;BME280;9696;53.686;10.094;2023-04-09T01:20:57;102606.53;;;6.26;100.00
19128;BME280;9696;53.686;10.094;2023-04-09T01:23:34;102604.44;;;6.36;100.00
19128;BME280;9696;53.686;10.094;2023-04-09T01:26:09;102605.56;;;6.29;100.00
19128;BME280;9696;53.686;10.094;2023-04-09T01:28:53;102608.53;;;6.20;100.00
19128;BME280;9696;53.686;10.094;2023-04-09T01:31:27;102603.19;;;6.23;100.00
19128;BME280;9696;53.686;10.094;2023-04-09T01:33:58;102597.81;;;6.27;100.00
19128;BME280;9696;53.686;10.094;2023-04-09T01:36:29;102602.00;;;6.31;100.00
19128;BME280;9696;53.686;10.094;2023-04-09T01:39:00;102602.72;;;6.35;100.00
19128;BME280;9696;53.686;10.094;2023-04-09T01:41:31;102599.94;;;6.39;100.00
19128;BME280;9696;53.686;10.094;2023-04-09T01:44:05;102604.34;;;6.37;100.00
19128;BME280;9696;53.686;10.094;2023-04-09T01:46:36;102610.25;;;6.42;100.00
19128;BME280;9696;53.686;10.094;2023-04-09T01:49:08;102603.44;;;6.38;100.00
19128;BME280;9696;53.686;10.094;2023-04-09T01:51:37;102599.94;;;6.39;100.00
19128;BME280;9696;53.686;10.094;2023-04-09T01:54:06;102598.13;;;6.41;100.00
19128;BME280;9696;53.686;10.094;2023-04-09T01:56:43;102596.72;;;6.33;100.00
19128;BME280;9696;53.686;10.094;2023-04-09T01:59:14;102598.38;;;6.35;100.00
19128;BME280;9696;53.686;10.094;2023-04-09T02:01:45;102588.78;;;6.36;100.00
19128;BME280;9696;53.686;10.094;2023-04-09T02:04:19;102586.53;;;6.27;100.00
19128;BME280;9696;53.686;10.094;2023-04-09T02:06:56;102589.69;;;6.35;100.00
19128;BME280;9696;53.686;10.094;2023-04-09T02:09:28;102593.06;;;6.37;100.00
19128;BME280;9696;53.686;10.094;2023-04-09T02:12:03;102586.19;;;6.36;100.00
19128;BME280;9696;53.686;10.094;2023-04-09T02:14:35;102589.03;;;6.30;100.00
19128;BME280;9696;53.686;10.094;2023-04-09T02:17:05;102587.31;;;6.29;100.00
19128;BME280;9696;53.686;10.094;2023-04-09T02:19:38;102588.13;;;6.31;100.00
19128;BME280;9696;53.686;10.094;2023-04-09T02:22:08;102579.31;;;6.33;100.00
19128;BME280;9696;53.686;10.094;2023-04-09T02:24:37;102580.16;;;6.34;100.00
19128;BME280;9696;53.686;10.094;2023-04-09T02:27:07;102589.38;;;6.21;100.00
19128;BME280;9696;53.686;10.094;2023-04-09T02:29:39;102586.47;;;6.28;100.00
19128;BME280;9696;53.686;10.094;2023-04-09T02:32:08;102581.19;;;6.30;100.00
19128;BME280;9696;53.686;10.094;2023-04-09T02:34:38;102583.94;;;6.27;100.00
19128;BME280;9696;53.686;10.094;2023-04-09T02:37:07;102586.19;;;6.12;100.00
19128;BME280;9696;53.686;10.094;2023-04-09T02:39:36;102579.41;;;6.32;100.00
19128;BME280;9696;53.686;10.094;2023-04-09T02:42:05;102576.00;;;6.30;100.00
19128;BME280;9696;53.686;10.094;2023-04-09T02:44:35;102581.03;;;6.34;100.00
19128;BME280;9696;53.686;10.094;2023-04-09T02:47:06;102576.84;;;6.30;100.00
19128;BME280;9696;53.686;10.094;2023-04-09T02:49:37;102571.69;;;6.29;100.00
19128;BME280;9696;53.686;10.094;2023-04-09T02:52:06;102564.88;;;6.25;100.00
19128;BME280;9696;53.686;10.094;2023-04-09T02:54:37;102568.13;;;6.31;100.00
19128;BME280;9696;53.686;10.094;2023-04-09T02:57:06;102556.97;;;6.28;100.00
19128;BME280;9696;53.686;10.094;2023-04-09T02:59:35;102549.88;;;6.31;100.00
19128;BME280;9696;53.686;10.094;2023-04-09T03:02:07;102556.16;;;6.26;100.00
19128;BME280;9696;53.686;10.094;2023-04-09T03:04:36;102551.09;;;6.23;100.00
19128;BME280;9696;53.686;10.094;2023-04-09T03:07:05;102552.53;;;6.30;100.00
19128;BME280;9696;53.686;10.094;2023-04-09T03:09:35;102541.34;;;6.28;100.00
19128;BME280;9696;53.686;10.094;2023-04-09T03:12:04;102546.25;;;6.35;100.00
19128;BME280;9696;53.686;10.094;2023-04-09T03:14:33;102547.31;;;6.30;100.00
19128;BME280;9696;53.686;10.094;2023-04-09T03:17:02;102548.06;;;6.11;100.00
19128;BME280;9696;53.686;10.094;2023-04-09T03:19:33;102547.94;;;6.14;100.00
19128;BME280;9696;53.686;10.094;2023-04-09T03:22:02;102544.47;;;6.14;100.00
19128;BME280;9696;53.686;10.094;2023-04-09T03:24:32;102539.97;;;6.18;100.00
19128;BME280;9696;53.686;10.094;2023-04-09T03:27:04;102541.75;;;6.17;100.00
19128;BME280;9696;53.686;10.094;2023-04-09T03:29:33;102537.75;;;6.30;100.00
19128;BME280;9696;53.686;10.094;2023-04-09T03:32:03;102547.31;;;6.30;100.00
19128;BME280;9696;53.686;10.094;2023-04-09T03:34:34;102542.91;;;6.32;100.00
19128;BME280;9696;53.686;10.094;2023-04-09T03:37:03;102540.22;;;6.33;100.00
19128;BME280;9696;53.686;10.094;2023-04-09T03:39:32;102542.91;;;6.32;100.00
19128;BME280;9696;53.686;10.094;2023-04-09T03:42:02;102540.06;;;6.38;100.00
19128;BME280;9696;53.686;10.094;2023-04-09T03:44:41;102536.31;;;6.23;100.00
19128;BME280;9696;53.686;10.094;2023-04-09T03:47:14;102541.09;;;6.34;100.00
19128;BME280;9696;53.686;10.094;2023-04-09T03:49:44;102536.03;;;6.29;100.00
19128;BME280;9696;53.686;10.094;2023-04-09T03:52:19;102548.03;;;6.33;100.00
19128;BME280;9696;53.686;10.094;2023-04-09T03:54:57;102543.63;;;6.35;100.00
19128;BME280;9696;53.686;10.094;2023-04-09T03:57:28;102540.47;;;6.27;100.00
19128;BME280;9696;53.686;10.094;2023-04-09T03:59:57;102551.47;;;6.35;100.00
19128;BME280;9696;53.686;10.094;2023-04-09T04:02:27;102549.56;;;6.39;100.00
19128;BME280;9696;53.686;10.094;2023-04-09T04:05:06;102558.25;;;6.39;100.00
19128;BME280;9696;53.686;10.094;2023-04-09T04:07:43;102558.47;;;6.33;100.00
19128;BME280;9696;53.686;10.094;2023-04-09T04:10:16;102554.47;;;6.25;100.00
19128;BME280;9696;53.686;10.094;2023-04-09T04:12:47;102557.75;;;6.30;100.00
19128;BME280;9696;53.686;10.094;2023-04-09T04:15:22;102553.56;;;6.26;100.00
19128;BME280;9696;53.686;10.094;2023-04-09T04:17:55;102556.13;;;6.27;100.00
19128;BME280;9696;53.686;10.094;2023-04-09T04:20:37;102554.06;;;6.35;100.00
19128;BME280;9696;53.686;10.094;2023-04-09T04:23:10;102554.41;;;6.26;100.00
19128;BME280;9696;53.686;10.094;2023-04-09T04:25:55;102558.56;;;6.32;100.00
19128;BME280;9696;53.686;10.094;2023-04-09T04:28:35;102557.31;;;6.19;100.00
19128;BME280;9696;53.686;10.094;2023-04-09T04:31:07;102558.44;;;6.35;100.00
19128;BME280;9696;53.686;10.094;2023-04-09T04:33:39;102564.13;;;6.23;100.00
19128;BME280;9696;53.686;10.094;2023-04-09T04:36:14;102563.91;;;6.05;100.00
19128;BME280;9696;53.686;10.094;2023-04-09T04:38:49;102559.69;;;6.25;100.00
19128;BME280;9696;53.686;10.094;2023-04-09T04:41:27;102565.91;;;6.21;100.00
19128;BME280;9696;53.686;10.094;2023-04-09T04:44:08;102563.13;;;6.25;100.00
19128;BME280;9696;53.686;10.094;2023-04-09T04:46:37;102563.72;;;6.10;100.00
19128;BME280;9696;53.686;10.094;2023-04-09T04:49:06;102563.31;;;6.21;100.00
19128;BME280;9696;53.686;10.094;2023-04-09T04:51:43;102571.50;;;6.11;100.00
19128;BME280;9696;53.686;10.094;2023-04-09T04:54:15;102568.78;;;6.14;100.00
19128;BME280;9696;53.686;10.094;2023-04-09T04:56:53;102569.19;;;6.26;100.00
19128;BME280;9696;53.686;10.094;2023-04-09T04:59:39;102559.97;;;6.17;100.00
19128;BME280;9696;53.686;10.094;2023-04-09T05:02:10;102558.91;;;6.23;100.00
19128;BME280;9696;53.686;10.094;2023-04-09T05:04:53;102558.66;;;6.29;100.00
19128;BME280;9696;53.686;10.094;2023-04-09T05:07:33;102567.44;;;6.26;100.00
19128;BME280;9696;53.686;10.094;2023-04-09T05:10:02;102560.91;;;6.16;100.00
19128;BME280;9696;53.686;10.094;2023-04-09T05:12:37;102568.47;;;6.22;100.00
19128;BME280;9696;53.686;10.094;2023-04-09T05:15:07;102572.81;;;6.22;100.00
19128;BME280;9696;53.686;10.094;2023-04-09T05:17:38;102575.09;;;6.31;100.00
19128;BME280;9696;53.686;10.094;2023-04-09T05:20:11;102572.19;;;6.38;100.00
19128;BME280;9696;53.686;10.094;2023-04-09T05:22:52;102574.53;;;6.23;100.00
19128;BME280;9696;53.686;10.094;2023-04-09T05:25:28;102573.34;;;6.31;100.00
19128;BME280;9696;53.686;10.094;2023-04-09T05:27:58;102572.91;;;6.42;100.00
19128;BME280;9696;53.686;10.094;2023-04-09T05:30:27;102572.19;;;6.38;100.00
19128;BME280;9696;53.686;10.094;2023-04-09T05:32:59;102573.94;;;6.38;100.00
19128;BME280;9696;53.686;10.094;2023-04-09T05:35:29;102572.22;;;6.37;100.00
19128;BME280;9696;53.686;10.094;2023-04-09T05:38:00;102582.09;;;6.29;100.00
19128;BME280;9696;53.686;10.094;2023-04-09T05:40:30;102583.75;;;6.31;100.00
19128;BME280;9696;53.686;10.094;2023-04-09T05:43:00;102585.34;;;6.35;100.00
19128;BME280;9696;53.686;10.094;2023-04-09T05:45:38;102584.31;;;6.39;100.00
19128;BME280;9696;53.686;10.094;2023-04-09T05:48:08;102581.28;;;6.50;100.00
19128;BME280;9696;53.686;10.094;2023-04-09T05:50:38;102569.41;;;6.43;100.00
19128;BME280;9696;53.686;10.094;2023-04-09T05:53:24;102587.69;;;6.41;100.00
19128;BME280;9696;53.686;10.094;2023-04-09T05:55:53;102578.53;;;6.53;100.00
19128;BME280;9696;53.686;10.094;2023-04-09T05:58:27;102586.66;;;6.67;100.00
19128;BME280;9696;53.686;10.094;2023-04-09T06:00:58;102586.84;;;6.62;100.00
19128;BME280;9696;53.686;10.094;2023-04-09T06:03:27;102580.19;;;6.55;100.00
19128;BME280;9696;53.686;10.094;2023-04-09T06:05:56;102582.84;;;6.54;100.00
19128;BME280;9696;53.686;10.094;2023-04-09T06:08:27;102583.03;;;6.71;100.00
19128;BME280;9696;53.686;10.094;2023-04-09T06:10:57;102582.47;;;6.63;100.00
19128;BME280;9696;53.686;10.094;2023-04-09T06:13:26;102586.13;;;6.59;100.00
19128;BME280;9696;53.686;10.094;2023-04-09T06:15:55;102594.00;;;6.57;100.00
19128;BME280;9696;53.686;10.094;2023-04-09T06:18:24;102591.22;;;6.62;100.00
19128;BME280;9696;53.686;10.094;2023-04-09T06:21:01;102590.78;;;6.73;100.00
19128;BME280;9696;53.686;10.094;2023-04-09T06:23:32;102595.97;;;6.73;100.00
19128;BME280;9696;53.686;10.094;2023-04-09T06:26:02;102593.47;;;6.71;100.00
19128;BME280;9696;53.686;10.094;2023-04-09T06:28:31;102595.56;;;6.83;100.00
19128;BME280;9696;53.686;10.094;2023-04-09T06:31:00;102599.44;;;6.73;100.00
19128;BME280;9696;53.686;10.094;2023-04-09T06:33:30;102595.84;;;6.76;100.00
19128;BME280;9696;53.686;10.094;2023-04-09T06:36:00;102593.72;;;6.85;100.00
19128;BME280;9696;53.686;10.094;2023-04-09T06:38:38;102596.59;;;6.79;100.00
19128;BME280;9696;53.686;10.094;2023-04-09T06:41:08;102590.84;;;6.91;100.00
19128;BME280;9696;53.686;10.094;2023-04-09T06:43:40;102599.41;;;6.75;100.00
19128;BME280;9696;53.686;10.094;2023-04-09T06:46:11;102597.75;;;6.72;100.00
19128;BME280;9696;53.686;10.094;2023-04-09T06:48:44;102593.94;;;6.59;100.00
19128;BME280;9696;53.686;10.094;2023-04-09T06:51:13;102600.53;;;6.46;100.00
19128;BME280;9696;53.686;10.094;2023-04-09T06:53:44;102602.41;;;6.64;100.00
19128;BME280;9696;53.686;10.094;2023-04-09T06:56:16;102608.66;;;6.60;100.00
19128;BME280;9696;53.686;10.094;2023-04-09T06:58:45;102609.78;;;6.54;100.00
19128;BME280;9696;53.686;10.094;2023-04-09T07:01:14;102609.19;;;6.68;100.00
19128;BME280;9696;53.686;10.094;2023-04-09T07:03:44;102610.00;;;6.70;100.00
19128;BME280;9696;53.686;10.094;2023-04-09T07:06:14;102616.84;;;6.73;100.00
19128;BME280;9696;53.686;10.094;2023-04-09T07:08:44;102608.22;;;6.92;100.00
19128;BME280;9696;53.686;10.094;2023-04-09T07:11:13;102605.69;;;6.91;100.00
19128;BME280;9696;53.686;10.094;2023-04-09T07:13:43;102610.81;;;6.92;100.00
19128;BME280;9696;53.686;10.094;2023-04-09T07:16:12;102605.19;;;7.03;100.00
19128;BME280;9696;53.686;10.094;2023-04-09T07:18:42;102610.19;;;6.87;100.00
19128;BME280;9696;53.686;10.094;2023-04-09T07:21:11;102606.19;;;6.79;100.00
19128;BME280;9696;53.686;10.094;2023-04-09T07:23:41;102610.47;;;6.80;100.00
19128;BME280;9696;53.686;10.094;2023-04-09T07:26:12;102605.63;;;7.13;100.00
19128;BME280;9696;53.686;10.094;2023-04-09T07:28:41;102606.97;;;6.81;100.00
19128;BME280;9696;53.686;10.094;2023-04-09T07:31:10;102610.78;;;6.72;100.00
19128;BME280;9696;53.686;10.094;2023-04-09T07:33:39;102609.66;;;6.99;100.00
19128;BME280;9696;53.686;10.094;2023-04-09T07:36:09;102616.59;;;7.21;100.00
19128;BME280;9696;53.686;10.094;2023-04-09T07:38:38;102611.09;;;7.47;100.00
19128;BME280;9696;53.686;10.094;2023-04-09T07:41:11;102613.47;;;7.53;100.00
19128;BME280;9696;53.686;10.094;2023-04-09T07:43:40;102612.59;;;7.52;100.00
19128;BME280;9696;53.686;10.094;2023-04-09T07:46:10;102607.38;;;7.52;100.00
19128;BME280;9696;53.686;10.094;2023-04-09T07:48:39;102614.22;;;7.55;100.00
19128;BME280;9696;53.686;10.094;2023-04-09T07:51:08;102607.53;;;7.49;100.00
19128;BME280;9696;53.686;10.094;2023-04-09T07:53:38;102612.22;;;7.62;100.00
19128;BME280;9696;53.686;10.094;2023-04-09T07:56:07;102610.00;;;7.32;100.00
19128;BME280;9696;53.686;10.094;2023-04-09T07:58:38;102606.69;;;7.49;100.00
19128;BME280;9696;53.686;10.094;2023-04-09T08:01:07;102605.16;;;7.43;100.00
19128;BME280;9696;53.686;10.094;2023-04-09T08:03:36;102605.09;;;7.65;100.00
19128;BME280;9696;53.686;10.094;2023-04-09T08:06:05;102612.31;;;7.58;100.00
19128;BME280;9696;53.686;10.094;2023-04-09T08:08:35;102605.44;;;7.37;100.00
19128;BME280;9696;53.686;10.094;2023-04-09T08:11:04;102609.81;;;7.57;100.00
19128;BME280;9696;53.686;10.094;2023-04-09T08:13:34;102603.59;;;7.78;100.00
19128;BME280;9696;53.686;10.094;2023-04-09T08:16:04;102605.06;;;7.85;100.00
19128;BME280;9696;53.686;10.094;2023-04-09T08:18:34;102604.72;;;7.93;100.00
19128;BME280;9696;53.686;10.094;2023-04-09T08:21:04;102601.44;;;8.06;100.00
19128;BME280;9696;53.686;10.094;2023-04-09T08:23:33;102600.88;;;8.00;100.00
19128;BME280;9696;53.686;10.094;2023-04-09T08:26:02;102595.94;;;8.13;100.00
19128;BME280;9696;53.686;10.094;2023-04-09T08:28:32;102597.56;;;8.15;100.00
19128;BME280;9696;53.686;10.094;2023-04-09T08:31:01;102593.06;;;8.00;100.00
19128;BME280;9696;53.686;10.094;2023-04-09T08:33:31;102601.53;;;8.24;100.00
19128;BME280;9696;53.686;10.094;2023-04-09T08:36:00;102600.06;;;8.37;100.00
19128;BME280;9696;53.686;10.094;2023-04-09T08:38:30;102606.09;;;8.19;100.00
19128;BME280;9696;53.686;10.094;2023-04-09T08:40:59;102600.19;;;8.15;100.00
19128;BME280;9696;53.686;10.094;2023-04-09T08:43:29;102603.59;;;8.17;100.00
19128;BME280;9696;53.686;10.094;2023-04-09T08:46:20;102606.91;;;8.21;100.00
19128;BME280;9696;53.686;10.094;2023-04-09T08:48:51;102608.81;;;8.17;100.00
19128;BME280;9696;53.686;10.094;2023-04-09T08:51:22;102610.03;;;8.29;100.00
19128;BME280;9696;53.686;10.094;2023-04-09T08:53:55;102606.53;;;8.28;100.00
19128;BME280;9696;53.686;10.094;2023-04-09T08:56:25;102602.91;;;8.32;100.00
19128;BME280;9696;53.686;10.094;2023-04-09T08:58:55;102605.38;;;8.35;100.00
19128;BME280;9696;53.686;10.094;2023-04-09T09:01:26;102604.31;;;8.39;100.00
19128;BME280;9696;53.686;10.094;2023-04-09T09:03:59;102609.75;;;8.35;100.00
19128;BME280;9696;53.686;10.094;2023-04-09T09:06:31;102604.91;;;8.07;100.00
19128;BME280;9696;53.686;10.094;2023-04-09T09:09:04;102607.34;;;8.30;100.00
19128;BME280;9696;53.686;10.094;2023-04-09T09:11:35;102607.06;;;8.18;100.00
19128;BME280;9696;53.686;10.094;2023-04-09T09:14:06;102610.91;;;8.29;100.00
19128;BME280;9696;53.686;10.094;2023-04-09T09:16:36;102607.06;;;8.36;100.00
19128;BME280;9696;53.686;10.094;2023-04-09T09:19:09;102609.31;;;8.44;100.00
19128;BME280;9696;53.686;10.094;2023-04-09T09:21:39;102605.22;;;8.38;100.00
19128;BME280;9696;53.686;10.094;2023-04-09T09:24:16;102613.63;;;8.45;100.00
19128;BME280;9696;53.686;10.094;2023-04-09T09:26:45;102608.88;;;8.53;100.00
19128;BME280;9696;53.686;10.094;2023-04-09T09:29:14;102610.56;;;8.54;100.00
19128;BME280;9696;53.686;10.094;2023-04-09T09:31:48;102604.41;;;8.55;100.00
19128;BME280;9696;53.686;10.094;2023-04-09T09:34:19;102613.22;;;8.71;100.00
19128;BME280;9696;53.686;10.094;2023-04-09T09:36:49;102606.91;;;8.75;100.00
19128;BME280;9696;53.686;10.094;2023-04-09T09:39:18;102609.47;;;8.41;100.00
19128;BME280;9696;53.686;10.094;2023-04-09T09:42:06;102608.03;;;8.52;100.00
19128;BME280;9696;53.686;10.094;2023-04-09T09:44:35;102600.25;;;8.51;100.00
19128;BME280;9696;53.686;10.094;2023-04-09T09:47:05;102599.44;;;8.68;100.00
19128;BME280;9696;53.686;10.094;2023-04-09T09:49:37;102595.69;;;8.90;100.00
19128;BME280;9696;53.686;10.094;2023-04-09T09:52:09;102601.00;;;8.89;100.00
19128;BME280;9696;53.686;10.094;2023-04-09T09:54:40;102592.16;;;8.91;100.00
19128;BME280;9696;53.686;10.094;2023-04-09T09:57:10;102591.25;;;8.92;100.00
19128;BME280;9696;53.686;10.094;2023-04-09T09:59:49;102597.03;;;8.63;100.00
19128;BME280;9696;53.686;10.094;2023-04-09T10:02:22;102591.44;;;8.71;100.00
19128;BME280;9696;53.686;10.094;2023-04-09T10:04:55;102600.31;;;8.85;100.00
19128;BME280;9696;53.686;10.094;2023-04-09T10:07:28;102588.97;;;8.85;100.00
19128;BME280;9696;53.686;10.094;2023-04-09T10:10:00;102585.53;;;9.02;100.00
19128;BME280;9696;53.686;10.094;2023-04-09T10:12:30;102587.91;;;8.72;100.00
19128;BME280;9696;53.686;10.094;2023-04-09T10:15:00;102589.78;;;9.04;100.00
19128;BME280;9696;53.686;10.094;2023-04-09T10:17:32;102597.06;;;8.97;100.00
19128;BME280;9696;53.686;10.094;2023-04-09T10:20:10;102586.22;;;9.05;100.00
19128;BME280;9696;53.686;10.094;2023-04-09T10:22:44;102586.91;;;9.09;100.00
19128;BME280;9696;53.686;10.094;2023-04-09T10:25:14;102590.00;;;8.82;100.00
19128;BME280;9696;53.686;10.094;2023-04-09T10:27:44;102590.22;;;8.61;100.00
19128;BME280;9696;53.686;10.094;2023-04-09T10:30:34;102586.75;;;8.77;100.00
19128;BME280;9696;53.686;10.094;2023-04-09T10:33:11;102584.56;;;9.04;100.00
19128;BME280;9696;53.686;10.094;2023-04-09T10:35:42;102578.50;;;8.85;100.00
19128;BME280;9696;53.686;10.094;2023-04-09T10:38:14;102580.97;;;9.05;100.00
19128;BME280;9696;53.686;10.094;2023-04-09T10:40:47;102581.16;;;9.02;100.00
19128;BME280;9696;53.686;10.094;2023-04-09T10:43:18;102575.06;;;9.02;100.00
19128;BME280;9696;53.686;10.094;2023-04-09T10:45:49;102586.00;;;8.92;100.00
19128;BME280;9696;53.686;10.094;2023-04-09T10:48:20;102581.75;;;8.90;100.00
19128;BME280;9696;53.686;10.094;2023-04-09T10:50:51;102590.06;;;8.64;100.00
19128;BME280;9696;53.686;10.094;2023-04-09T10:53:21;102583.13;;;8.97;100.00
19128;BME280;9696;53.686;10.094;2023-04-09T10:55:52;102579.16;;;9.07;100.00
19128;BME280;9696;53.686;10.094;2023-04-09T10:58:21;102575.91;;;9.02;100.00
19128;BME280;9696;53.686;10.094;2023-04-09T11:00:52;102574.91;;;9.22;100.00
19128;BME280;9696;53.686;10.094;2023-04-09T11:03:25;102572.00;;;9.11;100.00
19128;BME280;9696;53.686;10.094;2023-04-09T11:06:00;102569.84;;;9.19;100.00
19128;BME280;9696;53.686;10.094;2023-04-09T11:08:31;102572.91;;;9.27;100.00
19128;BME280;9696;53.686;10.094;2023-04-09T11:11:00;102563.50;;;9.40;100.00
19128;BME280;9696;53.686;10.094;2023-04-09T11:13:30;102570.00;;;9.16;100.00
19128;BME280;9696;53.686;10.094;2023-04-09T11:16:01;102564.94;;;9.45;100.00
19128;BME280;9696;53.686;10.094;2023-04-09T11:18:34;102569.66;;;9.22;100.00
19128;BME280;9696;53.686;10.094;2023-04-09T11:21:05;102562.94;;;9.33;100.00
19128;BME280;9696;53.686;10.094;2023-04-09T11:23:36;102568.16;;;9.51;100.00
19128;BME280;9696;53.686;10.094;2023-04-09T11:26:08;102567.72;;;9.42;100.00
19128;BME280;9696;53.686;10.094;2023-04-09T11:28:41;102563.03;;;9.32;100.00
19128;BME280;9696;53.686;10.094;2023-04-09T11:31:11;102564.53;;;9.53;100.00
19128;BME280;9696;53.686;10.094;2023-04-09T11:33:40;102563.69;;;9.20;100.00
19128;BME280;9696;53.686;10.094;2023-04-09T11:36:10;102563.78;;;9.51;100.00
19128;BME280;9696;53.686;10.094;2023-04-09T11:38:39;102565.19;;;9.89;100.00
19128;BME280;9696;53.686;10.094;2023-04-09T11:41:09;102570.16;;;9.78;100.00
19128;BME280;9696;53.686;10.094;2023-04-09T11:43:40;102560.53;;;9.79;100.00
19128;BME280;9696;53.686;10.094;2023-04-09T11:46:09;102550.22;;;9.43;100.00
19128;BME280;9696;53.686;10.094;2023-04-09T11:48:38;102556.19;;;9.29;100.00
19128;BME280;9696;53.686;10.094;2023-04-09T11:51:08;102551.88;;;9.61;100.00
19128;BME280;9696;53.686;10.094;2023-04-09T11:53:38;102548.91;;;9.52;100.00
19128;BME280;9696;53.686;10.094;2023-04-09T11:56:07;102556.66;;;10.02;100.00
19128;BME280;9696;53.686;10.094;2023-04-09T11:58:38;102540.25;;;9.82;100.00
19128;BME280;9696;53.686;10.094;2023-04-09T12:01:14;102546.22;;;9.84;100.00
19128;BME280;9696;53.686;10.094;2023-04-09T12:03:43;102545.56;;;10.44;100.00
19128;BME280;9696;53.686;10.094;2023-04-09T12:06:13;102550.56;;;10.01;100.00
19128;BME280;9696;53.686;10.094;2023-04-09T12:08:44;102550.06;;;9.94;100.00
19128;BME280;9696;53.686;10.094;2023-04-09T12:11:14;102533.31;;;10.13;100.00
19128;BME280;9696;53.686;10.094;2023-04-09T12:13:45;102541.66;;;10.04;100.00
19128;BME280;9696;53.686;10.094;2023-04-09T12:16:19;102537.56;;;10.15;100.00
19128;BME280;9696;53.686;10.094;2023-04-09T12:18:48;102544.59;;;10.30;100.00
19128;BME280;9696;53.686;10.094;2023-04-09T12:21:24;102533.22;;;10.14;100.00
19128;BME280;9696;53.686;10.094;2023-04-09T12:23:55;102523.53;;;10.62;100.00
19128;BME280;9696;53.686;10.094;2023-04-09T12:26:24;102527.88;;;10.47;100.00
19128;BME280;9696;53.686;10.094;2023-04-09T12:28:53;102527.78;;;11.08;100.00
19128;BME280;9696;53.686;10.094;2023-04-09T12:31:23;102520.13;;;11.33;100.00
19128;BME280;9696;53.686;10.094;2023-04-09T12:33:52;102517.28;;;11.37;100.00
19128;BME280;9696;53.686;10.094;2023-04-09T12:36:21;102513.53;;;11.55;100.00
19128;BME280;9696;53.686;10.094;2023-04-09T12:38:51;102510.44;;;11.48;100.00
19128;BME280;9696;53.686;10.094;2023-04-09T12:41:23;102514.84;;;11.48;100.00
19128;BME280;9696;53.686;10.094;2023-04-09T12:43:53;102512.50;;;11.71;100.00
19128;BME280;9696;53.686;10.094;2023-04-09T12:46:23;102519.63;;;11.13;100.00
19128;BME280;9696;53.686;10.094;2023-04-09T12:48:55;102515.94;;;11.86;100.00
19128;BME280;9696;53.686;10.094;2023-04-09T12:51:25;102504.13;;;12.20;100.00
19128;BME280;9696;53.686;10.094;2023-04-09T12:53:55;102505.75;;;12.08;100.00
19128;BME280;9696;53.686;10.094;2023-04-09T12:56:28;102514.63;;;11.22;100.00
19128;BME280;9696;53.686;10.094;2023-04-09T12:58:59;102506.41;;;12.39;100.00
19128;BME280;9696;53.686;10.094;2023-04-09T13:01:29;102494.41;;;13.25;100.00
19128;BME280;9696;53.686;10.094;2023-04-09T13:03:59;102499.94;;;12.69;100.00
19128;BME280;9696;53.686;10.094;2023-04-09T13:06:30;102494.75;;;13.82;100.00
19128;BME280;9696;53.686;10.094;2023-04-09T13:09:01;102486.09;;;12.53;100.00
19128;BME280;9696;53.686;10.094;2023-04-09T13:11:33;102481.91;;;12.51;100.00